Time;durP1;ratioP1;P1;durP2;ratioP2;P2;SDS_P1;SDS_P2;PMS_P1;PMS_P2;Temp;Humidity;BMP_temperature;BMP_pressure;BME280_temperature;BME280_humidity;BME280_pressure;Samples;Min_cycle;Max_cycle;Signal;HPM_P1;HPM_P2
2021/08/05 00:00:04;;;;;;;15.95;11.32;;;;;;;14.62;81.26;100067.50;10308193;28;20270;-75
2021/08/05 00:05:09;;;;;;;17.83;11.70;;;;;;;14.59;81.27;100063.25;10307928;28;20196;-75
2021/08/05 00:10:12;;;;;;;15.30;12.13;;;;;;;14.42;80.98;100069.53;10307765;28;20215;-75
2021/08/05 00:15:15;;;;;;;19.48;13.57;;;;;;;14.01;81.54;100061.03;10307026;28;20220;-75
2021/08/05 00:20:19;;;;;;;19.35;13.88;;;;;;;13.92;82.25;100068.22;10307641;28;20215;-75
2021/08/05 00:25:22;;;;;;;19.20;13.43;;;;;;;14.16;82.34;100051.38;10306562;28;20204;-75
2021/08/05 00:30:25;;;;;;;18.58;14.40;;;;;;;14.36;82.21;100046.66;10307179;28;20681;-75
2021/08/05 00:35:29;;;;;;;19.77;14.35;;;;;;;14.46;82.06;100043.06;10306958;28;20237;-75
2021/08/05 00:40:32;;;;;;;18.73;14.50;;;;;;;14.30;82.21;100055.38;10305530;28;20242;-76
2021/08/05 00:45:35;;;;;;;18.85;13.98;;;;;;;14.36;82.26;100054.75;10305252;28;20614;-75
2021/08/05 00:50:40;;;;;;;19.20;14.73;;;;;;;14.31;81.74;100050.81;10306170;28;20223;-75
2021/08/05 00:55:46;;;;;;;19.58;14.18;;;;;;;14.30;81.76;100049.13;10304830;28;20215;-75
2021/08/05 01:00:51;;;;;;;21.65;14.32;;;;;;;14.29;81.54;100042.91;10306144;28;20200;-74
2021/08/05 01:06:05;;;;;;;19.98;14.23;;;;;;;14.24;81.44;100039.81;10304807;28;20192;-75
2021/08/05 01:11:14;;;;;;;18.98;14.65;;;;;;;14.06;81.61;100034.41;10306077;28;20549;-75
2021/08/05 01:16:20;;;;;;;19.80;15.55;;;;;;;13.97;82.00;100026.41;10304479;28;20232;-75
2021/08/05 01:21:49;;;;;;;18.88;13.50;;;;;;;13.92;82.18;100025.00;10306086;28;20205;-75
2021/08/05 01:27:00;;;;;;;20.13;13.65;;;;;;;13.93;82.32;100033.94;10304776;28;20606;-75
2021/08/05 01:32:06;;;;;;;20.20;14.88;;;;;;;13.98;82.30;100018.13;10304445;28;20227;-75
2021/08/05 01:37:10;;;;;;;19.33;14.98;;;;;;;14.06;82.14;100018.22;10304298;28;20713;-76
2021/08/05 01:42:17;;;;;;;20.20;14.43;;;;;;;14.13;82.20;100016.59;10304214;28;20627;-75
2021/08/05 01:47:21;;;;;;;22.85;15.63;;;;;;;14.24;82.39;100012.78;10303515;28;20681;-75
2021/08/05 01:52:26;;;;;;;19.92;14.70;;;;;;;14.26;82.20;100008.09;10304166;28;20220;-74
2021/08/05 01:57:31;;;;;;;22.38;15.45;;;;;;;14.30;82.13;100012.16;10303331;28;20235;-75
2021/08/05 02:02:34;;;;;;;22.25;15.32;;;;;;;14.27;81.93;100014.34;10307788;28;20207;-75
2021/08/05 02:07:44;;;;;;;19.50;15.57;;;;;;;14.27;81.60;100006.22;10310269;28;20243;-74
2021/08/05 02:12:55;;;;;;;21.00;15.00;;;;;;;14.21;81.60;100001.47;10310696;28;20216;-74
2021/08/05 02:17:59;;;;;;;20.92;13.75;;;;;;;13.99;81.83;99998.25;10311199;28;20231;-75
2021/08/05 02:23:02;;;;;;;19.13;13.80;;;;;;;13.89;81.89;99990.22;10311608;28;20607;-75
2021/08/05 02:28:07;;;;;;;18.48;14.73;;;;;;;13.92;82.10;99992.63;10309331;28;20224;-74
2021/08/05 02:33:11;;;;;;;23.80;16.70;;;;;;;13.87;82.33;99991.38;10311357;28;20708;-75
2021/08/05 02:38:15;;;;;;;27.92;16.17;;;;;;;13.65;82.90;99990.00;10309836;28;20324;-75
2021/08/05 02:43:22;;;;;;;18.58;14.45;;;;;;;13.87;82.63;99997.63;10309280;28;20193;-75
2021/08/05 02:48:26;;;;;;;21.95;14.98;;;;;;;13.89;81.72;100001.03;10310361;28;20219;-75
2021/08/05 02:53:32;;;;;;;20.58;14.57;;;;;;;13.87;82.11;99986.81;10309167;28;20246;-75
2021/08/05 02:58:37;;;;;;;23.88;15.98;;;;;;;13.92;82.14;99989.91;10308381;28;20259;-75
2021/08/05 03:03:41;;;;;;;24.08;16.48;;;;;;;13.99;82.09;99989.28;10310195;28;20192;-75
2021/08/05 03:08:44;;;;;;;18.98;14.65;;;;;;;13.94;81.65;99971.72;10309263;28;20270;-75
2021/08/05 03:13:49;;;;;;;21.50;15.70;;;;;;;13.96;82.10;99970.69;10309484;28;20212;-75
2021/08/05 03:18:52;;;;;;;19.95;15.23;;;;;;;13.98;81.71;99974.94;10309344;28;20208;-75
2021/08/05 03:23:55;;;;;;;24.50;15.52;;;;;;;13.77;81.20;99977.97;10309226;28;20250;-75
2021/08/05 03:28:59;;;;;;;19.52;14.85;;;;;;;13.69;82.04;99975.22;10309136;28;20281;-75
2021/08/05 03:34:02;;;;;;;20.92;15.20;;;;;;;13.78;81.96;99970.72;10308527;28;20735;-75
2021/08/05 03:39:04;;;;;;;23.38;15.77;;;;;;;13.80;81.81;99969.56;10308699;28;20767;-74
2021/08/05 03:44:09;;;;;;;31.42;16.40;;;;;;;13.84;82.02;99960.16;10308454;28;20568;-75
2021/08/05 03:49:11;;;;;;;20.90;14.30;;;;;;;13.88;81.78;99953.44;10308543;28;20227;-75
2021/08/05 03:54:14;;;;;;;21.08;14.55;;;;;;;13.92;81.92;99960.22;10308039;28;20595;-75
2021/08/05 03:59:19;;;;;;;24.23;15.13;;;;;;;13.98;81.88;99955.19;10308039;28;20575;-74
2021/08/05 04:04:22;;;;;;;18.77;14.60;;;;;;;13.97;81.66;99950.81;10307791;28;20661;-75
2021/08/05 04:09:25;;;;;;;21.58;14.63;;;;;;;13.93;81.60;99950.25;10307908;28;20215;-75
2021/08/05 04:14:29;;;;;;;20.15;14.88;;;;;;;13.94;81.49;99950.09;10307170;28;20624;-75
2021/08/05 04:19:31;;;;;;;22.35;16.35;;;;;;;14.03;81.70;99942.06;10307648;28;20250;-75
2021/08/05 04:24:34;;;;;;;21.10;14.95;;;;;;;14.00;81.39;99943.22;10306534;28;20191;-75
2021/08/05 04:29:38;;;;;;;19.08;14.00;;;;;;;14.01;81.71;99953.00;10307277;28;20222;-75
2021/08/05 04:34:41;;;;;;;22.60;15.45;;;;;;;14.10;81.67;99949.38;10307054;28;20216;-75
2021/08/05 04:39:44;;;;;;;21.98;15.35;;;;;;;13.98;80.94;99942.53;10307744;28;20224;-75
2021/08/05 04:44:48;;;;;;;23.08;15.13;;;;;;;13.90;81.30;99947.88;10307283;28;20669;-75
2021/08/05 04:49:51;;;;;;;20.33;14.95;;;;;;;13.99;81.33;99946.94;10307769;28;20212;-75
2021/08/05 04:54:54;;;;;;;19.83;15.35;;;;;;;14.14;81.52;99944.50;10307094;28;20399;-75
2021/08/05 04:59:58;;;;;;;20.17;14.35;;;;;;;14.28;81.07;99933.13;10307040;28;20732;-75
2021/08/05 05:05:01;;;;;;;21.20;14.10;;;;;;;14.19;80.42;99936.78;10307188;28;20685;-75
2021/08/05 05:10:05;;;;;;;20.35;14.63;;;;;;;14.00;81.04;99943.22;10306997;28;20759;-75
2021/08/05 05:15:10;;;;;;;22.95;14.98;;;;;;;13.94;81.51;99938.47;10306594;28;20754;-75
2021/08/05 05:20:14;;;;;;;21.85;14.82;;;;;;;14.23;82.04;99929.19;10306773;28;20259;-75
2021/08/05 05:25:17;;;;;;;22.75;15.65;;;;;;;14.48;81.30;99927.53;10306313;28;20196;-75
2021/08/05 05:30:21;;;;;;;24.60;16.35;;;;;;;14.70;80.77;99926.09;10306504;28;20701;-75
2021/08/05 05:35:24;;;;;;;22.35;16.23;;;;;;;14.94;80.22;99934.31;10308283;28;20634;-75
2021/08/05 05:40:28;;;;;;;24.83;16.70;;;;;;;15.11;79.09;99928.97;10314245;28;20314;-75
2021/08/05 05:45:33;;;;;;;22.70;15.85;;;;;;;15.09;78.60;99942.66;10311336;28;20196;-75
2021/08/05 05:50:37;;;;;;;21.08;15.68;;;;;;;15.18;78.07;99941.66;10313889;28;20223;-75
2021/08/05 05:55:40;;;;;;;21.13;16.30;;;;;;;15.27;77.30;99935.25;10312360;28;20275;-75
2021/08/05 06:00:45;;;;;;;19.90;14.30;;;;;;;15.56;77.12;99942.13;10312813;28;20192;-75
2021/08/05 06:05:48;;;;;;;22.13;15.52;;;;;;;15.84;75.65;99944.50;10312702;28;20351;-75
2021/08/05 06:10:50;;;;;;;21.90;15.52;;;;;;;16.05;75.00;99941.28;10312340;28;20204;-75
2021/08/05 06:15:55;;;;;;;22.52;15.93;;;;;;;16.23;74.40;99939.19;10311737;28;20208;-75
2021/08/05 06:20:57;;;;;;;21.65;16.00;;;;;;;16.54;73.15;99941.22;10312090;28;20661;-75
2021/08/05 06:26:00;;;;;;;21.20;14.57;;;;;;;16.65;71.26;99943.56;10311811;28;20770;-75
2021/08/05 06:31:05;;;;;;;19.00;14.80;;;;;;;16.87;70.87;99941.94;10311872;28;20250;-75
2021/08/05 06:36:08;;;;;;;9.02;6.38;;;;;;;16.92;69.51;99944.09;10310973;28;20227;-74
2021/08/05 06:41:11;;;;;;;16.00;11.57;;;;;;;17.04;69.87;99938.13;10311290;28;20270;-75
2021/08/05 06:46:15;;;;;;;17.67;13.60;;;;;;;17.19;70.04;99931.97;10309829;28;20215;-74
2021/08/05 06:51:18;;;;;;;19.33;12.95;;;;;;;17.33;69.64;99933.91;10313825;28;20200;-75
2021/08/05 06:56:21;;;;;;;17.13;9.88;;;;;;;17.40;68.89;99929.47;10331867;22;20219;-74
2021/08/05 07:01:25;;;;;;;25.45;13.68;;;;;;;17.52;68.25;99929.88;10350029;28;20203;-74
2021/08/05 07:06:28;;;;;;;16.65;12.10;;;;;;;17.42;68.99;99934.72;10349462;28;20215;-75
2021/08/05 07:11:31;;;;;;;17.95;13.63;;;;;;;17.51;68.22;99940.94;10349782;28;20192;-74
2021/08/05 07:16:35;;;;;;;15.43;11.75;;;;;;;17.80;68.66;99940.19;10349091;28;20289;-74
2021/08/05 07:21:38;;;;;;;14.10;10.55;;;;;;;17.78;67.44;99944.97;10349545;28;20599;-75
2021/08/05 07:26:41;;;;;;;21.77;13.05;;;;;;;17.78;67.93;99944.97;10348674;28;20215;-75
2021/08/05 07:31:45;;;;;;;19.25;12.65;;;;;;;17.88;67.93;99932.84;10349172;28;20192;-74
2021/08/05 07:36:48;;;;;;;21.38;14.00;;;;;;;17.96;67.67;99931.06;10348562;28;20269;-74
2021/08/05 07:41:51;;;;;;;20.45;13.93;;;;;;;18.01;67.58;99929.50;10331337;28;20310;-74
2021/08/05 07:46:55;;;;;;;18.77;14.68;;;;;;;17.90;67.04;99933.47;10348163;28;20218;-74
2021/08/05 07:51:58;;;;;;;18.15;13.88;;;;;;;17.58;68.07;99931.91;10348764;28;20204;-73
2021/08/05 07:57:01;;;;;;;18.88;14.93;;;;;;;17.46;68.32;99925.19;10347698;28;20243;-75
2021/08/05 08:02:06;;;;;;;22.35;15.88;;;;;;;17.42;68.47;99929.28;10348414;28;20593;-75
2021/08/05 08:07:09;;;;;;;22.27;14.30;;;;;;;17.42;68.46;99926.59;10348061;28;20696;-75
2021/08/05 08:12:12;;;;;;;22.85;16.38;;;;;;;17.44;68.52;99928.09;10330292;28;20200;-74
2021/08/05 08:17:16;;;;;;;23.17;16.20;;;;;;;17.65;68.37;99919.25;10347553;28;20269;-75
2021/08/05 08:22:19;;;;;;;21.50;16.63;;;;;;;17.89;67.81;99926.38;10347396;28;20684;-74
2021/08/05 08:27:22;;;;;;;24.83;16.60;;;;;;;18.01;66.66;99921.38;10346895;28;20253;-74
2021/08/05 08:32:27;;;;;;;19.08;15.50;;;;;;;;;;10347233;28;20195;-74
2021/08/05 08:37:30;;;;;;;24.30;16.13;;;;;;;18.72;65.32;99916.34;10346269;28;20537;-74
2021/08/05 08:42:33;;;;;;;19.17;15.98;;;;;;;19.26;64.54;99914.31;10346487;28;20649;-75
2021/08/05 08:47:39;;;;;;;23.20;16.50;;;;;;;19.85;62.79;99906.75;10346142;28;20918;-75
2021/08/05 08:52:45;;;;;;;18.60;14.60;;;;;;;20.43;61.38;99905.72;10346740;28;20191;-75
2021/08/05 08:57:49;;;;;;;19.00;14.90;;;;;;;20.96;60.02;99900.56;10345247;28;20758;-74
2021/08/05 09:02:53;;;;;;;19.48;13.65;;;;;;;21.60;57.85;99896.53;10345583;28;20199;-75
2021/08/05 09:07:58;;;;;;;14.90;12.70;;;;;;;21.86;56.99;99882.91;10345524;28;20211;-74
2021/08/05 09:13:05;;;;;;;14.98;12.00;;;;;;;22.76;54.07;99890.53;10345718;28;20198;-75
2021/08/05 09:18:32;;;;;;;10.23;8.85;;;;;;;23.47;52.81;99883.25;10345037;28;20305;-74
2021/08/05 09:23:47;;;;;;;15.43;10.07;;;;;;;22.90;53.82;99873.03;10345874;28;20241;-75
2021/08/05 09:29:07;;;;;;;12.15;10.82;;;;;;;23.28;53.47;99863.13;10345610;28;20219;-74
2021/08/05 09:34:13;;;;;;;9.45;8.40;;;;;;;24.66;49.91;99868.47;10345065;28;20218;-74
2021/08/05 09:39:21;;;;;;;9.82;7.50;;;;;;;24.32;48.29;99865.22;10346317;28;20222;-75
2021/08/05 09:44:24;;;;;;;10.82;9.02;;;;;;;24.43;47.94;99860.06;10345242;28;20273;-75
2021/08/05 09:49:29;;;;;;;11.77;8.93;;;;;;;24.10;49.45;99856.56;10344976;28;20223;-75
2021/08/05 09:54:40;;;;;;;9.75;7.53;;;;;;;24.44;49.72;99854.38;10344765;28;20218;-75
2021/08/05 09:59:53;;;;;;;8.93;7.03;;;;;;;25.56;47.58;99844.81;10344680;28;20223;-75
2021/08/05 10:05:10;;;;;;;7.47;5.60;;;;;;;26.41;43.09;99836.19;10344446;28;20719;-75
2021/08/05 10:10:14;;;;;;;5.53;4.15;;;;;;;26.12;42.28;99824.22;10345226;28;20673;-75
2021/08/05 10:15:16;;;;;;;5.20;4.28;;;;;;;26.27;42.83;99824.59;10344052;28;20223;-75
2021/08/05 10:20:23;;;;;;;5.25;4.78;;;;;;;25.46;42.54;99822.59;10344094;28;20211;-75
2021/08/05 10:25:27;;;;;;;5.15;4.30;;;;;;;25.21;42.69;99825.53;10350467;28;20192;-75
2021/08/05 10:30:32;;;;;;;5.30;3.90;;;;;;;25.01;44.70;99823.84;10351911;28;20699;-75
2021/08/05 10:35:37;;;;;;;3.67;3.38;;;;;;;26.04;42.37;99819.06;10350486;28;20230;-75
2021/08/05 10:40:41;;;;;;;4.38;3.97;;;;;;;25.13;43.40;99815.69;10350788;28;20222;-75
2021/08/05 10:45:44;;;;;;;5.78;4.35;;;;;;;25.83;42.55;99807.56;10350209;28;20184;-75
2021/08/05 10:50:49;;;;;;;5.38;4.57;;;;;;;26.12;40.83;99796.69;10350488;28;20243;-75
2021/08/05 10:55:52;;;;;;;5.47;4.35;;;;;;;26.15;40.28;99790.69;10349916;28;20660;-75
2021/08/05 11:01:02;;;;;;;4.70;4.25;;;;;;;26.90;40.92;99780.69;10349634;28;20285;-75
2021/08/05 11:06:25;;;;;;;4.63;4.13;;;;;;;27.33;40.21;99776.50;10349762;28;20636;-74
2021/08/05 11:11:34;;;;;;;4.70;4.20;;;;;;;27.45;38.54;99762.66;10349605;28;20596;-75
2021/08/05 11:17:02;;;;;;;5.32;4.82;;;;;;;25.95;39.74;99762.75;10349016;28;20314;-74
2021/08/05 11:22:48;;;;;;;5.63;4.70;;;;;;;24.81;42.86;99760.97;10350367;28;20191;-74
2021/08/05 11:28:20;;;;;;;4.30;3.92;;;;;;;25.57;40.10;99751.13;10348954;28;20241;-75
2021/08/05 11:34:06;;;;;;;4.82;3.35;;;;;;;27.80;38.85;99746.66;10348796;28;20202;-75
2021/08/05 11:39:30;;;;;;;4.18;3.75;;;;;;;28.73;36.54;99734.06;10349180;28;20703;-72
2021/08/05 11:44:41;;;;;;;4.30;3.90;;;;;;;27.83;37.42;99728.75;10330755;28;20273;-73
2021/08/05 11:49:46;;;;;;;3.92;3.53;;;;;;;27.05;37.53;99733.31;10348456;28;20612;-72
2021/08/05 11:54:51;;;;;;;4.00;3.58;;;;;;;25.44;40.77;99710.09;10348611;28;20215;-73
2021/08/05 11:59:57;;;;;;;3.67;3.38;;;;;;;25.31;40.35;99708.41;10349589;28;20219;-74
2021/08/05 12:05:00;;;;;;;4.32;3.40;;;;;;;25.11;40.72;99705.19;10347332;28;20269;-75
2021/08/05 12:10:06;;;;;;;3.58;3.28;;;;;;;24.47;42.78;99700.19;10347896;28;20270;-75
2021/08/05 12:15:13;;;;;;;4.03;3.28;;;;;;;23.57;45.11;99706.28;10347607;28;20251;-75
2021/08/05 12:20:20;;;;;;;3.75;3.40;;;;;;;22.90;50.16;99705.13;10347574;28;20227;-75
2021/08/05 12:25:40;;;;;;;6.60;4.28;;;;;;;22.18;51.21;99702.56;10346875;28;20426;-75
2021/08/05 12:30:49;;;;;;;7.28;5.32;;;;;;;20.70;62.16;99699.34;10347414;28;20732;-74
2021/08/05 12:36:00;;;;;;;6.35;5.40;;;;;;;19.11;67.90;99702.88;10347153;28;20219;-75
2021/08/05 12:41:03;;;;;;;6.57;5.97;;;;;;;18.42;72.26;99706.16;10346840;28;20196;-74
2021/08/05 12:46:09;;;;;;;7.70;6.55;;;;;;;18.45;76.29;99702.19;10345963;28;20249;-74
2021/08/05 12:51:16;;;;;;;10.73;7.60;;;;;;;19.08;76.05;99695.09;10346960;28;20566;-75
2021/08/05 13:01:45;;;;;;;7.30;6.60;;;;;;;18.42;81.56;99711.59;10179253;29;20226;-76
2021/08/05 13:06:52;;;;;;;6.88;5.57;;;;;;;17.38;82.00;99716.22;10151496;29;20249;-76
2021/08/05 13:11:57;;;;;;;6.60;5.78;;;;;;;16.95;86.05;99713.16;10149036;29;20210;-76
2021/08/05 13:17:06;;;;;;;8.05;7.15;;;;;;;17.25;87.77;99703.25;10149168;29;20227;-75
2021/08/05 13:22:09;;;;;;;10.93;7.53;;;;;;;18.16;89.93;99703.97;10159597;29;20203;-75
2021/08/05 13:27:17;;;;;;;9.98;8.82;;;;;;;18.84;90.01;99700.94;10151311;29;20257;-74
2021/08/05 13:32:24;;;;;;;10.98;8.45;;;;;;;19.27;90.25;99690.03;10150337;29;20259;-75
2021/08/05 13:37:28;;;;;;;10.25;9.15;;;;;;;19.30;89.63;99686.91;10149189;29;20610;-75
2021/08/05 13:42:31;;;;;;;8.98;7.72;;;;;;;19.68;89.15;99676.50;10132804;29;20211;-76
2021/08/05 13:47:36;;;;;;;9.60;7.72;;;;;;;19.89;88.62;99681.00;10149243;29;20225;-76
2021/08/05 13:52:39;;;;;;;8.90;7.38;;;;;;;21.10;86.26;99678.41;10148886;29;20239;-76
2021/08/05 13:57:42;;;;;;;8.73;7.50;;;;;;;22.01;81.53;99685.81;10152131;29;20231;-76
2021/08/05 14:02:47;;;;;;;8.30;5.93;;;;;;;22.38;72.26;99679.75;10154090;29;20320;-74
2021/08/05 14:07:52;;;;;;;6.25;5.05;;;;;;;21.68;73.29;99677.69;10154707;29;20222;-76
2021/08/05 14:12:55;;;;;;;5.95;5.43;;;;;;;22.28;71.96;99675.59;10138011;29;20206;-75
2021/08/05 14:17:59;;;;;;;9.25;6.05;;;;;;;21.80;68.01;99667.81;10154208;29;20257;-75
2021/08/05 14:23:02;;;;;;;8.50;5.53;;;;;;;21.34;66.48;99665.16;10155197;29;20199;-76
2021/08/05 14:28:05;;;;;;;4.78;4.38;;;;;;;22.32;67.34;99674.13;10154742;29;20266;-76
2021/08/05 14:33:10;;;;;;;4.20;3.83;;;;;;;24.75;52.45;99655.63;10154805;29;20257;-76
2021/08/05 14:38:12;;;;;;;3.97;3.35;;;;;;;24.05;53.28;99649.84;10153010;29;20242;-76
2021/08/05 14:43:15;;;;;;;5.22;3.47;;;;;;;24.50;50.21;99644.00;10138271;29;20628;-76
2021/08/05 14:48:19;;;;;;;3.65;3.35;;;;;;;25.32;49.48;99626.81;10155078;29;20215;-76
2021/08/05 14:53:22;;;;;;;4.10;3.17;;;;;;;25.37;47.17;99624.19;10155442;29;20678;-75
2021/08/05 14:58:25;;;;;;;3.78;2.83;;;;;;;25.58;45.86;99629.03;10138693;29;20243;-77
2021/08/05 15:03:31;;;;;;;2.80;2.60;;;;;;;26.27;45.28;99620.03;10140875;29;20652;-77
2021/08/05 15:08:35;;;;;;;3.10;2.75;;;;;;;26.42;43.51;99614.84;10156138;29;20226;-77
2021/08/05 15:13:38;;;;;;;3.08;2.38;;;;;;;26.62;43.46;99603.34;10157836;29;20205;-76
2021/08/05 15:18:42;;;;;;;2.40;2.20;;;;;;;26.40;41.09;99602.41;10159002;29;20670;-77
2021/08/05 15:23:45;;;;;;;1.92;1.83;;;;;;;26.22;41.55;99595.13;10158346;29;20286;-77
2021/08/05 15:28:48;;;;;;;2.17;1.98;;;;;;;26.04;41.70;99588.78;10141271;29;20269;-76
2021/08/05 15:33:55;;;;;;;2.00;1.90;;;;;;;26.41;40.23;99571.03;10157419;29;20229;-76
2021/08/05 15:38:58;;;;;;;2.10;1.90;;;;;;;26.29;40.17;99573.84;10140562;29;20293;-76
2021/08/05 15:44:01;;;;;;;2.10;1.90;;;;;;;25.79;39.52;99569.84;10156884;29;20199;-76
2021/08/05 15:49:05;;;;;;;2.63;1.98;;;;;;;26.21;39.43;99568.72;10157701;29;20215;-74
2021/08/05 15:54:09;;;;;;;2.10;1.90;;;;;;;26.58;38.84;99560.03;10156472;29;20602;-75
2021/08/05 15:59:12;;;;;;;2.00;1.90;;;;;;;26.25;39.35;99570.75;10156540;29;20234;-76
2021/08/05 16:04:16;;;;;;;2.33;2.13;;;;;;;25.11;40.81;99581.53;10154823;29;20676;-75
2021/08/05 16:09:19;;;;;;;2.13;1.92;;;;;;;23.19;44.80;99570.28;10154355;29;20769;-75
2021/08/05 16:14:22;;;;;;;3.20;2.28;;;;;;;22.07;47.52;99572.00;10155142;29;20203;-76
2021/08/05 16:19:31;;;;;;;2.45;2.25;;;;;;;21.58;48.17;99570.72;10153224;29;20219;-75
2021/08/05 16:24:34;;;;;;;3.30;2.50;;;;;;;21.46;49.30;99573.28;10154489;29;20199;-75
2021/08/05 16:29:37;;;;;;;2.33;2.13;;;;;;;21.26;49.69;99564.34;10154699;29;20219;-74
2021/08/05 16:34:42;;;;;;;3.25;2.22;;;;;;;21.15;49.71;99561.22;10137529;29;20214;-75
2021/08/05 16:39:44;;;;;;;2.97;2.13;;;;;;;21.13;50.25;99555.09;10137743;29;20651;-77
2021/08/05 16:44:47;;;;;;;2.60;2.40;;;;;;;21.19;50.09;99558.88;10154017;29;20199;-76
2021/08/05 16:49:52;;;;;;;2.42;2.00;;;;;;;21.42;49.98;99559.25;10153621;29;20724;-76
2021/08/05 16:54:54;;;;;;;3.13;1.98;;;;;;;22.89;47.72;99553.69;10152848;29;20749;-76
2021/08/05 16:59:57;;;;;;;2.97;2.33;;;;;;;23.84;45.52;99544.25;10152533;29;20226;-76
2021/08/05 17:05:01;;;;;;;3.78;2.15;;;;;;;22.37;46.66;99544.84;10131707;29;20558;-76
2021/08/05 17:10:05;;;;;;;2.25;2.05;;;;;;;21.32;49.42;99545.19;10148615;29;20242;-77
2021/08/05 17:15:09;;;;;;;2.75;2.55;;;;;;;21.05;50.45;99541.69;10131241;29;20206;-77
2021/08/05 17:20:14;;;;;;;3.35;2.42;;;;;;;21.02;50.39;99536.63;10148487;29;20380;-76
2021/08/05 17:25:17;;;;;;;2.83;2.45;;;;;;;21.61;48.69;99540.22;10148514;29;20198;-75
2021/08/05 17:30:20;;;;;;;3.13;2.30;;;;;;;20.96;50.43;99535.59;10151319;29;20229;-76
2021/08/05 17:35:24;;;;;;;2.50;2.30;;;;;;;20.65;51.83;99532.69;10155872;29;20210;-76
2021/08/05 17:40:27;;;;;;;2.92;2.47;;;;;;;21.68;50.90;99528.22;10140085;29;20238;-76
2021/08/05 17:45:30;;;;;;;3.10;2.30;;;;;;;22.18;49.13;99516.59;10156686;29;20206;-76
2021/08/05 17:50:35;;;;;;;2.60;2.38;;;;;;;23.53;46.33;99523.31;10140062;29;20274;-74
2021/08/05 17:55:40;;;;;;;3.15;2.85;;;;;;;24.05;45.46;99526.41;10143992;29;20324;-76
2021/08/05 18:00:43;;;;;;;2.55;2.35;;;;;;;24.28;45.60;99529.25;10157648;29;20230;-74
2021/08/05 18:05:47;;;;;;;2.80;2.50;;;;;;;22.90;48.87;99533.50;10156076;29;20216;-76
2021/08/05 18:10:50;;;;;;;4.53;2.80;;;;;;;21.54;52.38;99533.97;10140653;29;20285;-76
2021/08/05 18:15:53;;;;;;;2.40;2.20;;;;;;;20.69;55.33;99529.31;10138621;29;20206;-76
2021/08/05 18:20:58;;;;;;;3.67;2.70;;;;;;;20.09;56.70;99532.00;10155446;29;20646;-76
2021/08/05 18:26:01;;;;;;;3.10;2.40;;;;;;;19.80;57.61;99526.91;10155436;29;20309;-77
2021/08/05 18:31:04;;;;;;;2.58;2.10;;;;;;;19.67;58.89;99523.09;10156639;29;20218;-76
2021/08/05 18:36:09;;;;;;;4.03;2.67;;;;;;;19.40;59.92;99522.13;10155575;29;20203;-75
2021/08/05 18:41:12;;;;;;;4.18;3.00;;;;;;;19.15;61.23;99527.25;10138718;29;20231;-75
2021/08/05 18:46:15;;;;;;;2.75;2.53;;;;;;;19.01;62.04;99525.50;10154602;29;20191;-75
2021/08/05 18:51:19;;;;;;;5.25;2.92;;;;;;;18.87;62.40;99527.28;10152800;29;20230;-76
2021/08/05 18:56:22;;;;;;;5.35;2.70;;;;;;;18.66;63.26;99522.72;10152738;29;20748;-77
2021/08/05 19:01:27;;;;;;;3.08;2.65;;;;;;;18.57;63.50;99524.75;10267496;23;20307;-74
2021/08/05 19:06:31;;;;;;;2.88;2.60;;;;;;;18.52;63.84;99532.66;10229623;29;20208;-74
2021/08/05 19:11:34;;;;;;;2.70;2.50;;;;;;;18.43;64.43;99524.81;10230118;29;20220;-74
2021/08/05 19:16:37;;;;;;;3.33;2.72;;;;;;;18.30;65.06;99531.84;10229476;29;20197;-74
2021/08/05 19:21:41;;;;;;;4.10;3.53;;;;;;;18.17;65.48;99531.72;10229291;29;20213;-75
2021/08/05 19:26:44;;;;;;;3.15;2.90;;;;;;;18.07;65.91;99531.19;10228694;29;20541;-74
2021/08/05 19:31:47;;;;;;;3.38;3.08;;;;;;;17.95;66.23;99533.53;10228661;29;20724;-74
2021/08/05 19:36:51;;;;;;;3.88;3.20;;;;;;;17.94;66.44;99537.31;10228412;29;20284;-75
2021/08/05 19:41:54;;;;;;;4.05;3.28;;;;;;;18.01;66.43;99531.97;10228580;29;20213;-75
2021/08/05 19:46:57;;;;;;;3.97;3.50;;;;;;;17.98;66.17;99524.19;10228377;29;20193;-74
2021/08/05 19:52:01;;;;;;;6.07;3.42;;;;;;;17.85;67.05;99524.88;10228194;29;20205;-75
2021/08/05 19:57:24;;;;;;;5.20;3.88;;;;;;;17.86;67.34;99521.97;10227256;29;20240;-75
2021/08/05 20:02:27;;;;;;;3.80;3.50;;;;;;;17.81;67.50;99516.25;10227990;29;20253;-74
2021/08/05 20:07:31;;;;;;;4.57;3.53;;;;;;;17.76;67.81;99515.16;10227108;29;20219;-75
2021/08/05 20:12:35;;;;;;;5.25;4.00;;;;;;;17.66;67.93;99512.75;10227412;29;20239;-75
2021/08/05 20:17:38;;;;;;;4.10;3.70;;;;;;;17.53;68.40;99516.16;10226824;29;20232;-75
2021/08/05 20:22:43;;;;;;;6.43;4.22;;;;;;;17.45;68.61;99521.72;10227008;29;20292;-75
2021/08/05 20:27:46;;;;;;;12.40;4.13;;;;;;;17.31;69.01;99509.84;10226664;29;20213;-74
2021/08/05 20:32:50;;;;;;;7.70;4.43;;;;;;;17.21;69.79;99509.28;10227081;29;20643;-74
2021/08/05 20:37:54;;;;;;;6.60;4.53;;;;;;;17.19;70.03;99503.19;10226430;29;20566;-75
2021/08/05 20:42:57;;;;;;;7.18;4.53;;;;;;;17.10;70.07;99499.72;10227517;29;20667;-74
2021/08/05 20:48:00;;;;;;;6.47;4.40;;;;;;;17.03;70.34;99501.50;10226810;29;20725;-73
2021/08/05 20:53:04;;;;;;;6.13;4.68;;;;;;;16.96;70.56;99504.13;10227243;29;20666;-73
2021/08/05 20:58:07;;;;;;;8.00;4.78;;;;;;;16.78;70.98;99498.22;10227365;29;20328;-73
2021/08/05 21:03:11;;;;;;;6.95;4.95;;;;;;;16.65;71.35;99493.47;10226664;29;20322;-73
2021/08/05 21:08:16;;;;;;;8.50;5.10;;;;;;;16.59;71.62;99495.03;10225394;29;20202;-73
2021/08/05 21:13:18;;;;;;;7.05;5.13;;;;;;;16.50;71.92;99490.72;10225816;29;20550;-73
2021/08/05 21:18:21;;;;;;;7.60;5.95;;;;;;;16.45;71.93;99485.00;10225539;29;20264;-73
2021/08/05 21:23:25;;;;;;;7.55;5.53;;;;;;;16.36;72.12;99480.69;10225630;29;20311;-74
2021/08/05 21:28:30;;;;;;;7.65;6.32;;;;;;;16.26;71.75;99472.81;10225343;29;20267;-74
2021/08/05 21:33:47;;;;;;;8.45;5.93;;;;;;;16.31;71.45;99466.84;10224990;29;20228;-73
2021/08/05 21:38:51;;;;;;;5.72;4.75;;;;;;;16.29;70.95;99455.34;10225202;29;20210;-74
2021/08/05 21:43:54;;;;;;;6.18;5.10;;;;;;;16.28;70.42;99448.25;10224900;29;20265;-73
2021/08/05 21:48:58;;;;;;;6.93;5.30;;;;;;;16.23;70.58;99453.34;10224476;29;20268;-74
2021/08/05 21:54:02;;;;;;;5.70;4.75;;;;;;;16.16;70.63;99450.53;10224422;29;20209;-74
2021/08/05 21:59:07;;;;;;;8.65;5.80;;;;;;;16.10;70.62;99448.56;10207045;29;20229;-74
2021/08/05 22:04:10;;;;;;;6.28;5.30;;;;;;;16.04;70.41;99449.28;10224027;29;20194;-74
2021/08/05 22:09:14;;;;;;;6.30;5.07;;;;;;;15.98;70.40;99447.31;10224287;29;20285;-74
2021/08/05 22:14:17;;;;;;;8.02;5.63;;;;;;;15.87;70.87;99440.44;10223503;29;20202;-74
2021/08/05 22:19:20;;;;;;;7.60;5.43;;;;;;;15.89;70.66;99444.66;10229165;29;20686;-74
2021/08/05 22:24:24;;;;;;;7.40;5.35;;;;;;;15.81;70.97;99433.06;10230242;29;20248;-74
2021/08/05 22:29:27;;;;;;;5.20;4.70;;;;;;;15.77;71.06;99426.31;10230887;29;20763;-74
2021/08/05 22:34:30;;;;;;;6.20;5.00;;;;;;;15.77;70.60;99429.03;10230464;29;20240;-73
2021/08/05 22:39:35;;;;;;;11.25;6.22;;;;;;;15.76;70.84;99413.81;10230906;29;20221;-74
2021/08/05 22:44:38;;;;;;;8.18;6.50;;;;;;;15.72;70.59;99417.91;10229765;29;20205;-73
2021/08/05 22:49:41;;;;;;;6.45;5.70;;;;;;;15.64;70.40;99414.25;10229946;29;20702;-75
2021/08/05 22:54:45;;;;;;;7.32;5.78;;;;;;;15.58;70.52;99408.72;10229871;29;20250;-73
2021/08/05 22:59:48;;;;;;;8.52;5.93;;;;;;;15.56;71.03;99411.59;10229938;29;20225;-73
2021/08/05 23:04:50;;;;;;;7.15;5.53;;;;;;;15.53;70.89;99411.97;10230388;29;20202;-73
2021/08/05 23:09:55;;;;;;;7.82;6.03;;;;;;;15.42;71.33;99393.44;10230072;29;20217;-73
2021/08/05 23:14:57;;;;;;;7.82;5.85;;;;;;;15.32;72.17;99388.22;10228834;29;20202;-73
2021/08/05 23:20:00;;;;;;;8.32;6.10;;;;;;;15.29;72.37;99385.88;10211578;29;20251;-74
2021/08/05 23:25:05;;;;;;;9.13;6.10;;;;;;;15.17;72.99;99393.56;10228274;29;20232;-74
2021/08/05 23:30:11;;;;;;;13.43;6.07;;;;;;;15.05;73.31;99381.44;10227640;29;20578;-74